sensor_id;sensor_type;location;lat;lon;timestamp;temperature;humidity
18392;DHT22;9322;50.932;5.318;2023-02-28T00:00:28;1.00;88.90
18392;DHT22;9322;50.932;5.318;2023-02-28T00:02:54;0.90;90.90
18392;DHT22;9322;50.932;5.318;2023-02-28T00:05:21;0.90;92.00
18392;DHT22;9322;50.932;5.318;2023-02-28T00:07:48;0.90;91.70
18392;DHT22;9322;50.932;5.318;2023-02-28T00:10:18;1.10;90.70
18392;DHT22;9322;50.932;5.318;2023-02-28T00:12:58;0.90;91.50
18392;DHT22;9322;50.932;5.318;2023-02-28T00:15:24;0.90;92.60
18392;DHT22;9322;50.932;5.318;2023-02-28T00:17:51;0.90;93.10
18392;DHT22;9322;50.932;5.318;2023-02-28T00:20:17;0.90;93.40
18392;DHT22;9322;50.932;5.318;2023-02-28T00:22:49;1.00;93.00
18392;DHT22;9322;50.932;5.318;2023-02-28T00:25:21;1.10;92.40
18392;DHT22;9322;50.932;5.318;2023-02-28T00:27:47;1.00;92.10
18392;DHT22;9322;50.932;5.318;2023-02-28T00:30:19;1.00;92.40
18392;DHT22;9322;50.932;5.318;2023-02-28T00:32:45;1.00;93.60
18392;DHT22;9322;50.932;5.318;2023-02-28T00:35:11;0.90;95.10
18392;DHT22;9322;50.932;5.318;2023-02-28T00:37:37;0.80;94.30
18392;DHT22;9322;50.932;5.318;2023-02-28T00:40:05;0.80;95.50
18392;DHT22;9322;50.932;5.318;2023-02-28T00:42:32;0.80;94.30
18392;DHT22;9322;50.932;5.318;2023-02-28T00:44:58;0.90;94.10
18392;DHT22;9322;50.932;5.318;2023-02-28T00:47:24;0.90;94.50
18392;DHT22;9322;50.932;5.318;2023-02-28T00:49:49;0.80;95.10
18392;DHT22;9322;50.932;5.318;2023-02-28T00:52:15;0.80;94.90
18392;DHT22;9322;50.932;5.318;2023-02-28T00:54:41;0.70;95.80
18392;DHT22;9322;50.932;5.318;2023-02-28T00:57:07;0.80;95.90
18392;DHT22;9322;50.932;5.318;2023-02-28T00:59:32;0.90;95.30
18392;DHT22;9322;50.932;5.318;2023-02-28T01:01:58;0.70;95.70
18392;DHT22;9322;50.932;5.318;2023-02-28T01:04:24;0.70;96.20
18392;DHT22;9322;50.932;5.318;2023-02-28T01:06:50;0.70;95.90
18392;DHT22;9322;50.932;5.318;2023-02-28T01:09:15;0.70;95.50
18392;DHT22;9322;50.932;5.318;2023-02-28T01:11:41;0.70;96.20
18392;DHT22;9322;50.932;5.318;2023-02-28T01:14:12;0.70;96.10
18392;DHT22;9322;50.932;5.318;2023-02-28T01:16:38;0.60;97.40
18392;DHT22;9322;50.932;5.318;2023-02-28T01:19:04;0.50;96.90
18392;DHT22;9322;50.932;5.318;2023-02-28T01:21:30;0.50;98.30
18392;DHT22;9322;50.932;5.318;2023-02-28T01:23:57;0.50;98.40
18392;DHT22;9322;50.932;5.318;2023-02-28T01:26:23;0.50;99.20
18392;DHT22;9322;50.932;5.318;2023-02-28T01:28:50;0.50;98.20
18392;DHT22;9322;50.932;5.318;2023-02-28T01:31:17;0.50;97.20
18392;DHT22;9322;50.932;5.318;2023-02-28T01:33:44;0.30;98.60
18392;DHT22;9322;50.932;5.318;2023-02-28T01:36:16;0.30;99.20
18392;DHT22;9322;50.932;5.318;2023-02-28T01:38:42;0.40;98.80
18392;DHT22;9322;50.932;5.318;2023-02-28T01:41:10;0.20;99.90
18392;DHT22;9322;50.932;5.318;2023-02-28T01:46:09;0.20;99.90
18392;DHT22;9322;50.932;5.318;2023-02-28T01:48:42;0.00;99.90
18392;DHT22;9322;50.932;5.318;2023-02-28T01:51:13;0.00;99.90
18392;DHT22;9322;50.932;5.318;2023-02-28T01:53:47;0.10;99.90
18392;DHT22;9322;50.932;5.318;2023-02-28T01:56:16;0.20;99.90
18392;DHT22;9322;50.932;5.318;2023-02-28T01:58:47;0.10;99.90
18392;DHT22;9322;50.932;5.318;2023-02-28T02:01:13;0.10;99.90
18392;DHT22;9322;50.932;5.318;2023-02-28T02:03:51;0.00;99.90
18392;DHT22;9322;50.932;5.318;2023-02-28T02:06:22;0.10;99.90
18392;DHT22;9322;50.932;5.318;2023-02-28T02:08:48;0.20;99.90
18392;DHT22;9322;50.932;5.318;2023-02-28T02:11:18;0.10;99.90
18392;DHT22;9322;50.932;5.318;2023-02-28T02:22:21;-0.10;99.90
18392;DHT22;9322;50.932;5.318;2023-02-28T02:28:07;0.00;99.90
18392;DHT22;9322;50.932;5.318;2023-02-28T02:34:16;0.10;99.90
18392;DHT22;9322;50.932;5.318;2023-02-28T02:41:52;0.00;99.90
18392;DHT22;9322;50.932;5.318;2023-02-28T02:44:26;0.00;99.90
18392;DHT22;9322;50.932;5.318;2023-02-28T02:47:05;0.00;99.90
18392;DHT22;9322;50.932;5.318;2023-02-28T02:49:33;0.00;99.90
18392;DHT22;9322;50.932;5.318;2023-02-28T02:52:04;0.00;99.90
18392;DHT22;9322;50.932;5.318;2023-02-28T02:54:35;-0.10;99.90
18392;DHT22;9322;50.932;5.318;2023-02-28T02:57:09;-0.10;99.90
18392;DHT22;9322;50.932;5.318;2023-02-28T02:59:39;0.00;99.90
18392;DHT22;9322;50.932;5.318;2023-02-28T03:02:09;-0.10;99.90
18392;DHT22;9322;50.932;5.318;2023-02-28T03:04:43;-0.10;99.90
18392;DHT22;9322;50.932;5.318;2023-02-28T03:07:09;-0.20;99.90
18392;DHT22;9322;50.932;5.318;2023-02-28T03:09:35;-0.20;99.90
18392;DHT22;9322;50.932;5.318;2023-02-28T03:12:09;-0.30;99.90
18392;DHT22;9322;50.932;5.318;2023-02-28T03:17:40;-0.30;99.90
18392;DHT22;9322;50.932;5.318;2023-02-28T03:23:16;-0.20;99.90
18392;DHT22;9322;50.932;5.318;2023-02-28T03:29:11;-0.30;99.90
18392;DHT22;9322;50.932;5.318;2023-02-28T03:31:50;-0.30;99.90
18392;DHT22;9322;50.932;5.318;2023-02-28T03:34:29;-0.40;99.90
18392;DHT22;9322;50.932;5.318;2023-02-28T03:37:03;-0.40;99.90
18392;DHT22;9322;50.932;5.318;2023-02-28T03:39:36;-0.40;99.90
18392;DHT22;9322;50.932;5.318;2023-02-28T03:42:14;-0.40;99.90
18392;DHT22;9322;50.932;5.318;2023-02-28T03:44:47;-0.30;99.90
18392;DHT22;9322;50.932;5.318;2023-02-28T03:47:51;-0.20;99.90
18392;DHT22;9322;50.932;5.318;2023-02-28T03:50:21;-0.10;99.90
18392;DHT22;9322;50.932;5.318;2023-02-28T03:52:56;-0.10;99.90
18392;DHT22;9322;50.932;5.318;2023-02-28T03:55:28;-0.10;99.90
18392;DHT22;9322;50.932;5.318;2023-02-28T03:58:01;-0.10;99.90
18392;DHT22;9322;50.932;5.318;2023-02-28T04:00:38;-0.20;99.90
18392;DHT22;9322;50.932;5.318;2023-02-28T04:03:05;-0.20;99.90
18392;DHT22;9322;50.932;5.318;2023-02-28T04:05:31;-0.20;99.90
18392;DHT22;9322;50.932;5.318;2023-02-28T04:08:08;-0.20;99.90
18392;DHT22;9322;50.932;5.318;2023-02-28T04:10:33;-0.20;99.90
18392;DHT22;9322;50.932;5.318;2023-02-28T04:12:59;-0.20;99.90
18392;DHT22;9322;50.932;5.318;2023-02-28T04:15:25;-0.30;99.90
18392;DHT22;9322;50.932;5.318;2023-02-28T04:17:52;-0.30;99.90
18392;DHT22;9322;50.932;5.318;2023-02-28T04:20:18;-0.30;99.90
18392;DHT22;9322;50.932;5.318;2023-02-28T04:22:44;-0.20;99.90
18392;DHT22;9322;50.932;5.318;2023-02-28T04:25:09;-0.30;99.90
18392;DHT22;9322;50.932;5.318;2023-02-28T04:27:35;-0.20;99.90
18392;DHT22;9322;50.932;5.318;2023-02-28T04:30:01;-0.30;99.90
18392;DHT22;9322;50.932;5.318;2023-02-28T04:32:26;-0.40;99.90
18392;DHT22;9322;50.932;5.318;2023-02-28T04:34:52;-0.30;99.90
18392;DHT22;9322;50.932;5.318;2023-02-28T04:37:18;-0.30;99.90
18392;DHT22;9322;50.932;5.318;2023-02-28T04:39:44;-0.30;99.90
18392;DHT22;9322;50.932;5.318;2023-02-28T04:42:10;-0.40;99.90
18392;DHT22;9322;50.932;5.318;2023-02-28T04:44:36;-0.30;99.90
18392;DHT22;9322;50.932;5.318;2023-02-28T04:47:02;-0.40;99.90
18392;DHT22;9322;50.932;5.318;2023-02-28T04:49:27;-0.50;99.90
18392;DHT22;9322;50.932;5.318;2023-02-28T04:51:53;-0.30;99.90
18392;DHT22;9322;50.932;5.318;2023-02-28T04:54:19;-0.30;99.90
18392;DHT22;9322;50.932;5.318;2023-02-28T04:56:45;-0.40;99.90
18392;DHT22;9322;50.932;5.318;2023-02-28T04:59:10;-0.40;99.90
18392;DHT22;9322;50.932;5.318;2023-02-28T05:01:36;-0.30;99.90
18392;DHT22;9322;50.932;5.318;2023-02-28T05:04:03;-0.50;99.90
18392;DHT22;9322;50.932;5.318;2023-02-28T05:06:31;-0.50;99.90
18392;DHT22;9322;50.932;5.318;2023-02-28T05:08:57;-0.70;99.90
18392;DHT22;9322;50.932;5.318;2023-02-28T05:11:26;-0.90;99.90
18392;DHT22;9322;50.932;5.318;2023-02-28T05:13:54;-0.90;99.90
18392;DHT22;9322;50.932;5.318;2023-02-28T05:16:21;-0.90;99.90
18392;DHT22;9322;50.932;5.318;2023-02-28T05:18:46;-0.70;99.90
18392;DHT22;9322;50.932;5.318;2023-02-28T05:24:19;-0.80;99.90
18392;DHT22;9322;50.932;5.318;2023-02-28T05:26:48;-0.90;99.90
18392;DHT22;9322;50.932;5.318;2023-02-28T05:29:15;-1.00;99.90
18392;DHT22;9322;50.932;5.318;2023-02-28T05:31:40;-1.10;99.90
18392;DHT22;9322;50.932;5.318;2023-02-28T05:34:06;-1.20;99.90
18392;DHT22;9322;50.932;5.318;2023-02-28T05:36:32;-1.20;99.90
18392;DHT22;9322;50.932;5.318;2023-02-28T05:38:58;-1.10;99.90
18392;DHT22;9322;50.932;5.318;2023-02-28T05:41:24;-1.20;99.90
18392;DHT22;9322;50.932;5.318;2023-02-28T05:43:51;-1.20;99.90
18392;DHT22;9322;50.932;5.318;2023-02-28T05:46:17;-1.20;99.90
18392;DHT22;9322;50.932;5.318;2023-02-28T05:48:45;-1.10;99.90
18392;DHT22;9322;50.932;5.318;2023-02-28T05:51:11;-1.00;99.90
18392;DHT22;9322;50.932;5.318;2023-02-28T05:53:36;-0.90;99.90
18392;DHT22;9322;50.932;5.318;2023-02-28T05:56:03;-0.90;99.90
18392;DHT22;9322;50.932;5.318;2023-02-28T05:58:29;-1.10;99.90
18392;DHT22;9322;50.932;5.318;2023-02-28T06:00:57;-1.00;99.90
18392;DHT22;9322;50.932;5.318;2023-02-28T06:03:23;-1.00;99.90
18392;DHT22;9322;50.932;5.318;2023-02-28T06:05:48;-1.00;99.90
18392;DHT22;9322;50.932;5.318;2023-02-28T06:08:15;-0.90;99.90
18392;DHT22;9322;50.932;5.318;2023-02-28T06:10:41;-1.00;99.90
18392;DHT22;9322;50.932;5.318;2023-02-28T06:13:07;-1.00;99.90
18392;DHT22;9322;50.932;5.318;2023-02-28T06:15:32;-1.00;99.90
18392;DHT22;9322;50.932;5.318;2023-02-28T06:17:58;-0.90;99.90
18392;DHT22;9322;50.932;5.318;2023-02-28T06:20:26;-0.90;99.90
18392;DHT22;9322;50.932;5.318;2023-02-28T06:22:55;-1.00;99.90
18392;DHT22;9322;50.932;5.318;2023-02-28T06:25:21;-1.00;99.90
18392;DHT22;9322;50.932;5.318;2023-02-28T06:27:47;-0.90;99.90
18392;DHT22;9322;50.932;5.318;2023-02-28T06:30:14;-1.00;99.90
18392;DHT22;9322;50.932;5.318;2023-02-28T06:32:39;-1.00;99.90
18392;DHT22;9322;50.932;5.318;2023-02-28T06:35:05;-1.00;99.90
18392;DHT22;9322;50.932;5.318;2023-02-28T06:37:32;-0.90;99.90
18392;DHT22;9322;50.932;5.318;2023-02-28T06:39:58;-0.80;99.90
18392;DHT22;9322;50.932;5.318;2023-02-28T06:42:24;-0.70;99.90
18392;DHT22;9322;50.932;5.318;2023-02-28T06:44:54;-0.50;99.90
18392;DHT22;9322;50.932;5.318;2023-02-28T06:47:20;-0.10;99.90
18392;DHT22;9322;50.932;5.318;2023-02-28T06:49:47;0.00;99.90
18392;DHT22;9322;50.932;5.318;2023-02-28T06:52:13;0.00;99.90
18392;DHT22;9322;50.932;5.318;2023-02-28T06:54:39;0.20;1.40
18392;DHT22;9322;50.932;5.318;2023-02-28T06:57:04;0.40;1.40
18392;DHT22;9322;50.932;5.318;2023-02-28T06:59:30;1.10;1.40
18392;DHT22;9322;50.932;5.318;2023-02-28T07:01:56;1.60;1.40
18392;DHT22;9322;50.932;5.318;2023-02-28T07:04:22;2.20;1.40
18392;DHT22;9322;50.932;5.318;2023-02-28T07:06:48;2.70;1.40
18392;DHT22;9322;50.932;5.318;2023-02-28T07:09:14;3.20;1.40
18392;DHT22;9322;50.932;5.318;2023-02-28T07:11:40;3.40;1.40
18392;DHT22;9322;50.932;5.318;2023-02-28T07:14:06;3.60;1.40
18392;DHT22;9322;50.932;5.318;2023-02-28T07:16:32;4.00;1.40
18392;DHT22;9322;50.932;5.318;2023-02-28T07:18:58;4.60;1.40
18392;DHT22;9322;50.932;5.318;2023-02-28T07:21:24;4.90;1.40
18392;DHT22;9322;50.932;5.318;2023-02-28T07:23:50;5.10;1.40
18392;DHT22;9322;50.932;5.318;2023-02-28T07:26:18;5.40;1.40
18392;DHT22;9322;50.932;5.318;2023-02-28T07:28:46;5.40;1.40
18392;DHT22;9322;50.932;5.318;2023-02-28T07:31:12;5.90;1.40
18392;DHT22;9322;50.932;5.318;2023-02-28T07:33:39;5.80;1.40
18392;DHT22;9322;50.932;5.318;2023-02-28T07:36:07;6.10;1.40
18392;DHT22;9322;50.932;5.318;2023-02-28T07:38:35;6.00;1.40
18392;DHT22;9322;50.932;5.318;2023-02-28T07:41:01;5.50;1.40
18392;DHT22;9322;50.932;5.318;2023-02-28T07:43:30;5.90;1.40
18392;DHT22;9322;50.932;5.318;2023-02-28T07:48:29;6.20;1.40
18392;DHT22;9322;50.932;5.318;2023-02-28T07:50:58;6.40;1.40
18392;DHT22;9322;50.932;5.318;2023-02-28T07:53:24;6.70;1.40
18392;DHT22;9322;50.932;5.318;2023-02-28T07:55:50;6.50;1.40
18392;DHT22;9322;50.932;5.318;2023-02-28T07:58:15;6.60;1.40
18392;DHT22;9322;50.932;5.318;2023-02-28T08:00:41;7.40;1.40
18392;DHT22;9322;50.932;5.318;2023-02-28T08:03:10;7.50;1.40
18392;DHT22;9322;50.932;5.318;2023-02-28T08:05:40;8.30;1.40
18392;DHT22;9322;50.932;5.318;2023-02-28T08:08:07;9.00;1.40
18392;DHT22;9322;50.932;5.318;2023-02-28T08:10:32;8.50;1.40
18392;DHT22;9322;50.932;5.318;2023-02-28T08:12:58;8.60;1.40
18392;DHT22;9322;50.932;5.318;2023-02-28T08:15:24;9.30;1.40
18392;DHT22;9322;50.932;5.318;2023-02-28T08:17:49;10.00;1.40
18392;DHT22;9322;50.932;5.318;2023-02-28T08:20:15;10.40;1.40
18392;DHT22;9322;50.932;5.318;2023-02-28T08:22:41;9.80;1.40
18392;DHT22;9322;50.932;5.318;2023-02-28T08:25:07;9.50;1.40
18392;DHT22;9322;50.932;5.318;2023-02-28T08:27:33;10.00;1.40
18392;DHT22;9322;50.932;5.318;2023-02-28T08:29:59;10.70;1.40
18392;DHT22;9322;50.932;5.318;2023-02-28T08:32:25;11.20;1.40
18392;DHT22;9322;50.932;5.318;2023-02-28T08:34:50;10.90;1.40
18392;DHT22;9322;50.932;5.318;2023-02-28T08:37:16;10.80;1.40
18392;DHT22;9322;50.932;5.318;2023-02-28T08:39:42;10.90;1.40
18392;DHT22;9322;50.932;5.318;2023-02-28T08:42:07;11.30;1.40
18392;DHT22;9322;50.932;5.318;2023-02-28T08:44:33;11.30;1.40
18392;DHT22;9322;50.932;5.318;2023-02-28T08:46:59;11.30;1.40
18392;DHT22;9322;50.932;5.318;2023-02-28T08:49:24;11.20;1.40
18392;DHT22;9322;50.932;5.318;2023-02-28T08:51:50;10.70;1.40
18392;DHT22;9322;50.932;5.318;2023-02-28T08:54:16;11.50;1.40
18392;DHT22;9322;50.932;5.318;2023-02-28T08:56:45;12.40;1.40
18392;DHT22;9322;50.932;5.318;2023-02-28T08:59:12;12.00;1.40
18392;DHT22;9322;50.932;5.318;2023-02-28T09:01:37;11.80;1.40
18392;DHT22;9322;50.932;5.318;2023-02-28T09:04:03;11.40;1.40
18392;DHT22;9322;50.932;5.318;2023-02-28T09:06:29;10.90;1.40
18392;DHT22;9322;50.932;5.318;2023-02-28T09:08:57;10.60;1.40
18392;DHT22;9322;50.932;5.318;2023-02-28T09:11:24;10.50;1.40
18392;DHT22;9322;50.932;5.318;2023-02-28T09:13:49;10.40;1.40
18392;DHT22;9322;50.932;5.318;2023-02-28T09:16:16;10.20;1.40
18392;DHT22;9322;50.932;5.318;2023-02-28T09:18:43;10.80;1.40
18392;DHT22;9322;50.932;5.318;2023-02-28T09:21:11;11.50;1.40
18392;DHT22;9322;50.932;5.318;2023-02-28T09:23:40;11.00;1.40
18392;DHT22;9322;50.932;5.318;2023-02-28T09:26:06;10.50;1.40
18392;DHT22;9322;50.932;5.318;2023-02-28T09:28:32;10.60;1.40
18392;DHT22;9322;50.932;5.318;2023-02-28T09:30:58;11.40;1.40
18392;DHT22;9322;50.932;5.318;2023-02-28T09:33:25;11.50;1.40
18392;DHT22;9322;50.932;5.318;2023-02-28T09:36:00;11.50;1.40
18392;DHT22;9322;50.932;5.318;2023-02-28T09:38:27;12.10;1.40
18392;DHT22;9322;50.932;5.318;2023-02-28T09:40:55;11.90;1.40
18392;DHT22;9322;50.932;5.318;2023-02-28T09:43:23;10.90;1.40
18392;DHT22;9322;50.932;5.318;2023-02-28T09:48:37;10.40;1.40
18392;DHT22;9322;50.932;5.318;2023-02-28T09:51:05;10.70;1.40
18392;DHT22;9322;50.932;5.318;2023-02-28T09:53:37;10.50;1.40
18392;DHT22;9322;50.932;5.318;2023-02-28T09:56:12;10.20;1.40
18392;DHT22;9322;50.932;5.318;2023-02-28T09:58:48;10.20;1.40
18392;DHT22;9322;50.932;5.318;2023-02-28T10:04:33;9.80;1.40
18392;DHT22;9322;50.932;5.318;2023-02-28T10:07:10;9.40;1.40
18392;DHT22;9322;50.932;5.318;2023-02-28T10:09:44;8.80;1.40
18392;DHT22;9322;50.932;5.318;2023-02-28T10:12:11;8.70;1.40
18392;DHT22;9322;50.932;5.318;2023-02-28T10:14:39;8.90;1.40
18392;DHT22;9322;50.932;5.318;2023-02-28T10:17:20;10.10;1.40
18392;DHT22;9322;50.932;5.318;2023-02-28T10:22:21;10.60;1.40
18392;DHT22;9322;50.932;5.318;2023-02-28T10:24:52;11.70;1.40
18392;DHT22;9322;50.932;5.318;2023-02-28T10:27:20;12.50;1.40
18392;DHT22;9322;50.932;5.318;2023-02-28T10:29:48;11.70;1.40
18392;DHT22;9322;50.932;5.318;2023-02-28T10:32:17;10.30;1.40
18392;DHT22;9322;50.932;5.318;2023-02-28T10:34:44;10.90;1.40
18392;DHT22;9322;50.932;5.318;2023-02-28T10:37:11;10.80;1.40
18392;DHT22;9322;50.932;5.318;2023-02-28T10:39:44;10.30;1.40
18392;DHT22;9322;50.932;5.318;2023-02-28T10:42:26;10.90;1.40
18392;DHT22;9322;50.932;5.318;2023-02-28T10:45:05;10.40;1.40
18392;DHT22;9322;50.932;5.318;2023-02-28T10:47:32;9.50;1.40
18392;DHT22;9322;50.932;5.318;2023-02-28T10:49:58;9.70;1.40
18392;DHT22;9322;50.932;5.318;2023-02-28T10:52:39;11.00;1.40
18392;DHT22;9322;50.932;5.318;2023-02-28T10:55:20;9.70;1.40
18392;DHT22;9322;50.932;5.318;2023-02-28T10:57:48;10.50;1.40
18392;DHT22;9322;50.932;5.318;2023-02-28T11:00:20;11.80;1.40
18392;DHT22;9322;50.932;5.318;2023-02-28T11:02:47;12.40;1.40
18392;DHT22;9322;50.932;5.318;2023-02-28T11:05:34;11.40;1.40
18392;DHT22;9322;50.932;5.318;2023-02-28T11:08:13;10.90;1.40
18392;DHT22;9322;50.932;5.318;2023-02-28T11:10:43;11.20;1.40
18392;DHT22;9322;50.932;5.318;2023-02-28T11:13:17;11.20;1.40
18392;DHT22;9322;50.932;5.318;2023-02-28T11:15:53;11.80;1.40
18392;DHT22;9322;50.932;5.318;2023-02-28T11:21:04;12.30;1.40
18392;DHT22;9322;50.932;5.318;2023-02-28T11:23:33;11.00;1.40
18392;DHT22;9322;50.932;5.318;2023-02-28T11:26:03;10.60;1.40
18392;DHT22;9322;50.932;5.318;2023-02-28T11:28:32;10.20;1.40
18392;DHT22;9322;50.932;5.318;2023-02-28T11:33:48;11.70;1.40
18392;DHT22;9322;50.932;5.318;2023-02-28T11:38:53;13.90;1.40
18392;DHT22;9322;50.932;5.318;2023-02-28T11:41:44;12.30;1.40
18392;DHT22;9322;50.932;5.318;2023-02-28T11:46:59;12.30;1.40
18392;DHT22;9322;50.932;5.318;2023-02-28T11:57:34;14.10;1.40
18392;DHT22;9322;50.932;5.318;2023-02-28T12:00:25;14.90;1.40
18392;DHT22;9322;50.932;5.318;2023-02-28T12:05:58;10.90;1.40
18392;DHT22;9322;50.932;5.318;2023-02-28T12:08:53;11.60;1.40
18392;DHT22;9322;50.932;5.318;2023-02-28T12:11:36;11.00;1.40
18392;DHT22;9322;50.932;5.318;2023-02-28T12:17:26;9.90;1.40
18392;DHT22;9322;50.932;5.318;2023-02-28T12:25:45;11.00;1.40
18392;DHT22;9322;50.932;5.318;2023-02-28T12:28:17;10.60;1.40
18392;DHT22;9322;50.932;5.318;2023-02-28T12:31:10;10.70;1.40
18392;DHT22;9322;50.932;5.318;2023-02-28T12:33:40;10.30;1.40
18392;DHT22;9322;50.932;5.318;2023-02-28T12:36:13;10.60;1.40
18392;DHT22;9322;50.932;5.318;2023-02-28T12:39:08;10.20;1.40
18392;DHT22;9322;50.932;5.318;2023-02-28T12:41:58;9.70;1.40
18392;DHT22;9322;50.932;5.318;2023-02-28T12:46:56;9.70;1.40
18392;DHT22;9322;50.932;5.318;2023-02-28T12:51:50;6.90;1.40
18392;DHT22;9322;50.932;5.318;2023-02-28T12:54:28;6.60;1.40
18392;DHT22;9322;50.932;5.318;2023-02-28T12:59:38;6.50;1.40
18392;DHT22;9322;50.932;5.318;2023-02-28T13:02:43;6.20;1.40
18392;DHT22;9322;50.932;5.318;2023-02-28T13:10:17;5.80;1.40
18392;DHT22;9322;50.932;5.318;2023-02-28T13:12:52;6.00;1.40
18392;DHT22;9322;50.932;5.318;2023-02-28T13:17:51;6.50;1.40
18392;DHT22;9322;50.932;5.318;2023-02-28T13:22:53;6.20;1.40
18392;DHT22;9322;50.932;5.318;2023-02-28T13:33:31;5.90;1.40
18392;DHT22;9322;50.932;5.318;2023-02-28T13:38:53;6.20;1.40
18392;DHT22;9322;50.932;5.318;2023-02-28T13:46:26;5.80;1.40
18392;DHT22;9322;50.932;5.318;2023-02-28T13:48:52;5.60;1.40
18392;DHT22;9322;50.932;5.318;2023-02-28T13:51:41;5.70;1.40
18392;DHT22;9322;50.932;5.318;2023-02-28T14:00:43;6.00;1.40
18392;DHT22;9322;50.932;5.318;2023-02-28T14:09:04;6.10;1.40
18392;DHT22;9322;50.932;5.318;2023-02-28T14:11:36;5.90;1.40
18392;DHT22;9322;50.932;5.318;2023-02-28T14:14:03;5.90;1.40
18392;DHT22;9322;50.932;5.318;2023-02-28T14:16:45;6.00;1.40
18392;DHT22;9322;50.932;5.318;2023-02-28T14:19:12;6.00;1.40
18392;DHT22;9322;50.932;5.318;2023-02-28T14:30:07;5.50;1.40
18392;DHT22;9322;50.932;5.318;2023-02-28T14:32:54;5.40;1.40
18392;DHT22;9322;50.932;5.318;2023-02-28T14:35:43;5.50;1.40
18392;DHT22;9322;50.932;5.318;2023-02-28T14:38:22;5.60;1.40
18392;DHT22;9322;50.932;5.318;2023-02-28T14:40:52;5.90;1.40
18392;DHT22;9322;50.932;5.318;2023-02-28T14:43:22;5.80;1.40
18392;DHT22;9322;50.932;5.318;2023-02-28T14:45:57;5.50;1.40
18392;DHT22;9322;50.932;5.318;2023-02-28T14:48:24;5.50;1.40
18392;DHT22;9322;50.932;5.318;2023-02-28T14:50:56;5.60;1.40
18392;DHT22;9322;50.932;5.318;2023-02-28T14:53:25;5.70;1.40
18392;DHT22;9322;50.932;5.318;2023-02-28T14:55:51;5.70;1.40
18392;DHT22;9322;50.932;5.318;2023-02-28T14:58:25;5.40;1.40
18392;DHT22;9322;50.932;5.318;2023-02-28T15:00:53;5.30;1.40
18392;DHT22;9322;50.932;5.318;2023-02-28T15:03:33;5.40;1.40
18392;DHT22;9322;50.932;5.318;2023-02-28T15:06:04;5.50;1.40
18392;DHT22;9322;50.932;5.318;2023-02-28T15:08:31;5.40;1.40
18392;DHT22;9322;50.932;5.318;2023-02-28T15:11:23;5.50;1.40
18392;DHT22;9322;50.932;5.318;2023-02-28T15:13:51;5.40;1.40
18392;DHT22;9322;50.932;5.318;2023-02-28T15:16:22;5.50;1.40
18392;DHT22;9322;50.932;5.318;2023-02-28T15:18:58;5.70;1.40
18392;DHT22;9322;50.932;5.318;2023-02-28T15:21:31;5.60;1.40
18392;DHT22;9322;50.932;5.318;2023-02-28T15:24:13;5.60;1.40
18392;DHT22;9322;50.932;5.318;2023-02-28T15:26:42;5.70;1.40
18392;DHT22;9322;50.932;5.318;2023-02-28T15:29:14;5.70;1.40
18392;DHT22;9322;50.932;5.318;2023-02-28T15:31:44;5.30;1.40
18392;DHT22;9322;50.932;5.318;2023-02-28T15:34:20;5.40;1.40
18392;DHT22;9322;50.932;5.318;2023-02-28T15:36:47;5.40;1.40
18392;DHT22;9322;50.932;5.318;2023-02-28T15:39:22;5.50;1.40
18392;DHT22;9322;50.932;5.318;2023-02-28T15:41:48;5.60;1.40
18392;DHT22;9322;50.932;5.318;2023-02-28T15:44:26;5.60;1.40
18392;DHT22;9322;50.932;5.318;2023-02-28T15:47:16;5.60;1.40
18392;DHT22;9322;50.932;5.318;2023-02-28T15:52:59;5.80;1.40
18392;DHT22;9322;50.932;5.318;2023-02-28T15:55:21;5.70;1.40
18392;DHT22;9322;50.932;5.318;2023-02-28T15:57:53;5.60;1.40
18392;DHT22;9322;50.932;5.318;2023-02-28T16:00:22;5.60;1.40
18392;DHT22;9322;50.932;5.318;2023-02-28T16:02:48;5.40;1.40
18392;DHT22;9322;50.932;5.318;2023-02-28T16:05:22;5.40;1.40
18392;DHT22;9322;50.932;5.318;2023-02-28T16:08:01;5.40;1.40
18392;DHT22;9322;50.932;5.318;2023-02-28T16:10:28;5.50;1.40
18392;DHT22;9322;50.932;5.318;2023-02-28T16:12:56;5.40;1.40
18392;DHT22;9322;50.932;5.318;2023-02-28T16:15:26;5.40;1.40
18392;DHT22;9322;50.932;5.318;2023-02-28T16:17:53;5.30;1.40
18392;DHT22;9322;50.932;5.318;2023-02-28T16:20:25;5.40;1.40
18392;DHT22;9322;50.932;5.318;2023-02-28T16:22:51;5.40;1.40
18392;DHT22;9322;50.932;5.318;2023-02-28T16:25:19;5.30;1.40
18392;DHT22;9322;50.932;5.318;2023-02-28T16:27:48;5.40;1.40
18392;DHT22;9322;50.932;5.318;2023-02-28T16:30:36;5.30;1.40
18392;DHT22;9322;50.932;5.318;2023-02-28T16:33:02;5.30;1.40
18392;DHT22;9322;50.932;5.318;2023-02-28T16:35:28;5.20;1.40
18392;DHT22;9322;50.932;5.318;2023-02-28T16:37:54;5.20;1.40
18392;DHT22;9322;50.932;5.318;2023-02-28T16:40:22;5.10;1.40
18392;DHT22;9322;50.932;5.318;2023-02-28T16:42:51;5.00;1.40
18392;DHT22;9322;50.932;5.318;2023-02-28T16:45:18;5.00;1.40
18392;DHT22;9322;50.932;5.318;2023-02-28T16:47:45;5.10;1.40
18392;DHT22;9322;50.932;5.318;2023-02-28T16:50:19;5.00;1.40
18392;DHT22;9322;50.932;5.318;2023-02-28T16:52:46;5.10;1.40
18392;DHT22;9322;50.932;5.318;2023-02-28T16:55:12;5.00;1.40
18392;DHT22;9322;50.932;5.318;2023-02-28T16:57:38;5.00;1.40
18392;DHT22;9322;50.932;5.318;2023-02-28T17:00:07;5.00;1.40
18392;DHT22;9322;50.932;5.318;2023-02-28T17:02:34;5.00;1.40
18392;DHT22;9322;50.932;5.318;2023-02-28T17:05:00;5.00;1.40
18392;DHT22;9322;50.932;5.318;2023-02-28T17:07:26;5.00;1.40
18392;DHT22;9322;50.932;5.318;2023-02-28T17:09:51;5.00;1.40
18392;DHT22;9322;50.932;5.318;2023-02-28T17:12:17;5.00;1.40
18392;DHT22;9322;50.932;5.318;2023-02-28T17:14:42;4.90;1.40
18392;DHT22;9322;50.932;5.318;2023-02-28T17:17:14;5.00;1.40
18392;DHT22;9322;50.932;5.318;2023-02-28T17:19:41;4.90;1.40
18392;DHT22;9322;50.932;5.318;2023-02-28T17:22:09;4.90;1.40
18392;DHT22;9322;50.932;5.318;2023-02-28T17:24:35;5.00;1.40
18392;DHT22;9322;50.932;5.318;2023-02-28T17:27:02;4.90;1.40
18392;DHT22;9322;50.932;5.318;2023-02-28T17:29:27;4.70;1.40
18392;DHT22;9322;50.932;5.318;2023-02-28T17:31:53;4.80;1.40
18392;DHT22;9322;50.932;5.318;2023-02-28T17:34:19;4.50;1.40
18392;DHT22;9322;50.932;5.318;2023-02-28T17:36:46;4.40;1.40
18392;DHT22;9322;50.932;5.318;2023-02-28T17:39:13;4.60;1.40
18392;DHT22;9322;50.932;5.318;2023-02-28T17:41:41;4.60;1.40
18392;DHT22;9322;50.932;5.318;2023-02-28T17:44:07;4.50;1.40
18392;DHT22;9322;50.932;5.318;2023-02-28T17:46:34;4.40;1.40
18392;DHT22;9322;50.932;5.318;2023-02-28T17:48:59;4.30;1.40
18392;DHT22;9322;50.932;5.318;2023-02-28T17:51:25;4.30;1.40
18392;DHT22;9322;50.932;5.318;2023-02-28T17:53:51;4.20;1.40
18392;DHT22;9322;50.932;5.318;2023-02-28T17:56:22;4.20;1.40
18392;DHT22;9322;50.932;5.318;2023-02-28T17:58:49;4.20;1.40
18392;DHT22;9322;50.932;5.318;2023-02-28T18:01:15;4.20;1.40
18392;DHT22;9322;50.932;5.318;2023-02-28T18:03:41;4.20;1.40
18392;DHT22;9322;50.932;5.318;2023-02-28T18:06:13;4.20;1.40
18392;DHT22;9322;50.932;5.318;2023-02-28T18:08:40;4.20;1.40
18392;DHT22;9322;50.932;5.318;2023-02-28T18:11:06;4.00;1.40
18392;DHT22;9322;50.932;5.318;2023-02-28T18:13:47;4.00;1.40
18392;DHT22;9322;50.932;5.318;2023-02-28T18:16:13;4.10;1.40
18392;DHT22;9322;50.932;5.318;2023-02-28T18:18:39;4.00;1.40
18392;DHT22;9322;50.932;5.318;2023-02-28T18:21:07;3.80;1.40
18392;DHT22;9322;50.932;5.318;2023-02-28T18:23:33;3.90;1.40
18392;DHT22;9322;50.932;5.318;2023-02-28T18:25:59;3.70;1.40
18392;DHT22;9322;50.932;5.318;2023-02-28T18:28:25;3.60;1.40
18392;DHT22;9322;50.932;5.318;2023-02-28T18:30:51;3.60;1.40
18392;DHT22;9322;50.932;5.318;2023-02-28T18:33:17;3.60;1.40